Time Latitude Longitude Accuracy (66% radius in meters) Altitude (meters) Speed (km/hour) Bearing (degrees) Battery (%) GPS flag
03:27:49 51.887640 107.641655 3.2000000476837 720.9 2.6760408878326 162.00999450684 80 1 delete
03:27:44 51.887735 107.641580 3.2000000476837 722.9 2.3919141292572 146.28999328613 80 1 delete
03:27:39 51.887785 107.641450 3.2999999523163 725.7 2.174186706543 125.98000335693 80 1 delete
03:27:35 51.887775 107.641325 3.2999999523163 727.5 1.3933531045914 72.099998474121 80 1 delete
03:27:33 51.887770 107.641288 3.4000000953674 728.5 2.1618332862854 78.220001220703 80 1 delete
03:27:29 51.887790 107.641130 3.5999999046326 728.5 4.5058784484863 112.7799987793 80 1 delete
03:27:26 51.887827 107.640960 3.4000000953674 728.4 5.621796131134 109.37000274658 80 1 delete
03:27:22 51.887852 107.640787 3.2999999523163 728.3 2.3332357406616 118.43000030518 80 1 delete
03:27:18 51.887907 107.640640 3.2999999523163 727.8 3.1727478504181 132.36000061035 80 1 delete
03:27:15 51.887978 107.640537 3.4000000953674 727.2 2.4521367549896 140.72999572754 80 1 delete
03:27:12 51.888063 107.640457 3.5999999046326 726.8 0 188.64999389648 80 1 delete
03:27:07 51.888168 107.640435 3.7000000476837 726 1.7433642148972 188.64999389648 80 1 delete
03:27:06 51.888190 107.640435 3.5999999046326 726 2.5236830711365 194.32000732422 80 1 delete
03:27:03 51.888270 107.640453 3.5999999046326 725.8 2.490740776062 194.60000610352 80 1 delete
03:26:59 51.888383 107.640493 3.5999999046326 726.1 2.850531578064 196.71000671387 80 1 delete
03:26:56 51.888483 107.640563 3.5999999046326 727.6 2.6765556335449 176.16000366211 80 1 delete
03:26:52 51.888577 107.640542 3.7000000476837 729.4 1.8571177721024 110.9700012207 80 1 delete
03:26:49 51.888635 107.640422 3.7000000476837 728.4 3.3462090492249 123.18000030518 80 1 delete
03:26:45 51.888657 107.640258 3.5999999046326 727.3 1.4309277534485 116.30000305176 80 1 delete
03:26:44 51.888663 107.640222 3.7000000476837 727.1 1.0896669626236 116.30000305176 80 1 delete
03:26:40 51.888675 107.640088 3.5999999046326 726.8 3.3106932640076 145.30999755859 80 1 delete
03:26:37 51.888748 107.639982 3.5 725.8 4.2809448242188 156.28999328613 80 1 delete
03:26:33 51.888812 107.639923 3.4000000953674 725.5 0 102.16000366211 80 1 delete
03:26:31 51.888842 107.639905 3.5999999046326 726.7 0 102.16000366211 80 1 delete
03:26:28 51.888928 107.639815 3.7999999523163 728 1.6435080766678 138.28999328613 80 1 delete
03:26:23 51.889013 107.639702 3.7999999523163 727.5 1.6574056148529 145.71000671387 80 1 delete
03:26:22 51.889033 107.639690 3.7999999523163 727.5 2.3306622505188 146.35000610352 80 1 delete
03:26:19 51.889098 107.639615 3.7000000476837 726.8 3.9093153476715 154.67999267578 80 1 delete
03:26:16 51.889190 107.639537 3.7000000476837 726.5 4.5341882705688 160.38999938965 80 1 delete
03:26:13 51.889288 107.639510 3.5999999046326 726.5 3.3873870372772 165.53999328613 80 1 delete
03:26:10 51.889352 107.639495 3.5999999046326 727 1.1570955514908 128.55999755859 80 1 delete
03:26:09 51.889380 107.639473 3.5999999046326 727 2.3265445232391 128.55999755859 80 1 delete
03:26:06 51.889502 107.639437 3.7000000476837 729.3 3.6354830265045 154.30999755859 80 1 delete
03:26:03 51.889593 107.639383 3.5999999046326 730.3 4.7879462242126 153.61000061035 80 1 delete
03:25:59 51.889707 107.639340 3.5 734.8 0 168.75 80 1 delete
03:25:58 51.889707 107.639340 3.5999999046326 734.8 0 168.75 80 1 delete
03:25:55 51.889800 107.639340 3.7999999523163 739.8 1.4860030412674 168.75 80 1 delete
03:25:51 51.889893 107.639348 4 744 1.6610085964203 159.13000488281 80 1 delete
03:25:48 51.889987 107.639315 3.9000000953674 744.9 0 136.22999572754 80 1 delete
03:25:44 51.889997 107.639323 3.9000000953674 745 0 136.22999572754 80 1 delete
03:25:39 51.890077 107.639217 3.7999999523163 744.3 6.3032884597778 152.27000427246 80 1 delete
03:25:35 51.890197 107.639125 3.5999999046326 744.7 3.6977643966675 145.91999816895 80 1 delete
03:25:31 51.890290 107.639008 3.7000000476837 744.3 3.0440671443939 133.13000488281 80 1 delete
03:25:28 51.890318 107.638915 3.9000000953674 743.9 1.4010739326477 91.5 80 1 delete
03:25:26 51.890347 107.638873 3.9000000953674 744.8 4.0786590576172 127.98999786377 80 1 delete
03:25:23 51.890435 107.638700 4 745.1 3.9185802936554 128.30000305176 80 1 delete
03:25:20 51.890493 107.638572 3.9000000953674 745.1 5.7237110137939 133.7799987793 80 1 delete
03:25:16 51.890555 107.638393 3.7999999523163 745 2.9045774936676 94.330001831055 80 1 delete
03:25:14 51.890615 107.638240 4 745.4 2.0686686038971 90.540000915527 80 1 delete
03:25:13 51.890630 107.638195 4.0999999046326 745.6 3.4162113666534 109.18000030518 80 1 delete